Time;durP1;ratioP1;P1;durP2;ratioP2;P2;SDS_P1;SDS_P2;PMS_P1;PMS_P2;Temp;Humidity;BMP_temperature;BMP_pressure;BME280_temperature;BME280_humidity;BME280_pressure;Samples;Min_cycle;Max_cycle;Signal;HPM_P1;HPM_P2
2024/01/14 00:00:00;;;;;;;1.15;0.82;;;6.70;99.90;;;;;;10369226;28;20025;-72
2024/01/14 00:05:00;;;;;;;2.25;1.10;;;6.70;99.90;;;;;;10378781;28;20023;-72
2024/01/14 00:10:01;;;;;;;1.73;0.98;;;6.70;99.90;;;;;;10374041;28;20020;-72
2024/01/14 00:15:03;;;;;;;3.35;0.90;;;6.70;99.90;;;;;;10380551;28;20034;-72
2024/01/14 00:20:04;;;;;;;2.38;1.15;;;6.70;99.90;;;;;;10382040;28;20033;-72
2024/01/14 00:25:05;;;;;;;2.97;0.80;;;6.70;99.90;;;;;;10375477;28;20014;-72
2024/01/14 00:30:06;;;;;;;3.53;0.82;;;6.70;99.90;;;;;;10375275;28;20033;-72
2024/01/14 00:35:07;;;;;;;1.23;0.68;;;6.70;99.90;;;;;;10380032;28;20026;-72
2024/01/14 00:40:10;;;;;;;2.55;0.90;;;6.70;99.90;;;;;;10367342;28;20038;-72
2024/01/14 00:45:11;;;;;;;1.38;0.73;;;6.70;99.90;;;;;;10356106;28;20023;-72
2024/01/14 00:50:12;;;;;;;2.20;0.65;;;6.70;99.90;;;;;;10358353;28;20042;-72
2024/01/14 00:55:13;;;;;;;1.25;0.70;;;6.70;99.90;;;;;;10352700;28;20030;-72
2024/01/14 01:00:14;;;;;;;1.45;0.88;;;6.70;99.90;;;;;;10353462;28;20116;-72
2024/01/14 01:05:14;;;;;;;2.05;0.80;;;6.70;99.90;;;;;;10361324;28;20030;-72
2024/01/14 01:10:15;;;;;;;1.25;0.75;;;6.70;99.90;;;;;;10370852;28;20041;-72
2024/01/14 01:15:15;;;;;;;1.25;0.77;;;6.70;99.90;;;;;;10366201;28;20026;-72
2024/01/14 01:20:16;;;;;;;1.30;0.70;;;6.70;99.90;;;;;;10356145;28;20046;-72
2024/01/14 01:25:17;;;;;;;2.83;1.10;;;6.70;99.90;;;;;;10365704;28;20490;-72
2024/01/14 01:30:17;;;;;;;2.10;0.65;;;6.70;99.90;;;;;;10363429;28;20034;-72
2024/01/14 01:35:18;;;;;;;2.22;0.73;;;6.80;99.90;;;;;;10362341;28;20729;-72
2024/01/14 01:40:18;;;;;;;1.90;0.65;;;6.70;99.90;;;;;;10368728;28;20025;-72
2024/01/14 01:45:19;;;;;;;1.67;0.60;;;6.70;99.90;;;;;;10347560;28;20032;-72
2024/01/14 01:50:20;;;;;;;1.33;0.55;;;6.80;99.90;;;;;;10367098;28;20067;-71
2024/01/14 01:55:21;;;;;;;3.47;0.65;;;6.70;99.90;;;;;;10363547;28;20033;-72
2024/01/14 02:00:22;;;;;;;2.25;0.70;;;6.70;99.90;;;;;;10362698;28;20032;-72
2024/01/14 02:05:23;;;;;;;2.05;0.70;;;6.80;99.90;;;;;;10364207;28;20009;-72
2024/01/14 02:10:24;;;;;;;1.73;0.60;;;6.70;99.90;;;;;;10368037;28;20044;-72
2024/01/14 02:15:25;;;;;;;1.10;0.50;;;6.70;99.90;;;;;;10349402;28;20040;-73
2024/01/14 02:20:25;;;;;;;0.63;0.50;;;6.70;99.90;;;;;;10359041;28;20034;-72
2024/01/14 02:25:26;;;;;;;1.45;0.80;;;6.70;99.90;;;;;;10367474;28;20565;-72
2024/01/14 02:30:27;;;;;;;1.08;0.60;;;6.70;99.90;;;;;;10365031;28;20461;-72
2024/01/14 02:35:27;;;;;;;2.33;0.50;;;6.70;99.90;;;;;;10358746;28;20468;-72
2024/01/14 02:40:29;;;;;;;1.98;0.40;;;6.70;99.90;;;;;;10347806;28;20034;-72
2024/01/14 02:45:33;;;;;;;1.73;0.70;;;6.70;99.90;;;;;;10362007;28;20018;-72
2024/01/14 02:50:34;;;;;;;1.65;0.60;;;6.70;99.90;;;;;;10363439;28;20044;-72
2024/01/14 02:55:36;;;;;;;2.50;0.47;;;6.70;99.90;;;;;;10360294;28;20448;-72
2024/01/14 03:00:36;;;;;;;0.88;0.50;;;5.90;99.90;;;;;;10356237;28;20494;-72
2024/01/14 03:05:37;;;;;;;1.60;0.55;;;6.70;99.90;;;;;;10359680;28;20114;-72
2024/01/14 03:10:37;;;;;;;1.05;0.40;;;6.70;99.90;;;;;;10348526;28;20030;-72
2024/01/14 03:15:38;;;;;;;2.28;0.82;;;7.10;99.90;;;;;;10347622;28;20032;-72
2024/01/14 03:20:38;;;;;;;1.90;0.40;;;6.90;99.90;;;;;;10345370;28;20038;-72
2024/01/14 03:25:39;;;;;;;1.10;0.50;;;6.70;99.90;;;;;;10360349;28;20018;-72
2024/01/14 03:30:39;;;;;;;1.60;0.57;;;6.70;99.90;;;;;;10363486;28;20034;-72
2024/01/14 03:35:40;;;;;;;1.92;0.60;;;6.70;99.90;;;;;;10371325;28;20041;-72
2024/01/14 03:40:42;;;;;;;0.77;0.45;;;6.70;99.90;;;;;;10358456;28;20037;-72
2024/01/14 03:45:42;;;;;;;1.38;0.40;;;6.70;99.90;;;;;;10345544;28;20022;-72
2024/01/14 03:50:44;;;;;;;1.38;0.38;;;6.70;99.90;;;;;;10345546;28;20057;-72
2024/01/14 03:55:47;;;;;;;1.00;0.40;;;6.70;99.90;;;;;;10358751;28;20029;-72
2024/01/14 04:00:47;;;;;;;0.55;0.28;;;6.70;99.90;;;;;;10362088;28;20025;-72
2024/01/14 04:05:48;;;;;;;1.40;0.45;;;6.70;99.90;;;;;;10366920;28;20030;-72
2024/01/14 04:10:49;;;;;;;0.73;0.50;;;6.70;99.90;;;;;;10358744;28;20033;-73
2024/01/14 04:15:50;;;;;;;0.60;0.40;;;6.70;99.90;;;;;;10358402;28;20093;-72
2024/01/14 04:20:50;;;;;;;2.17;0.40;;;6.70;99.90;;;;;;10348554;28;20033;-72
2024/01/14 04:25:51;;;;;;;2.22;0.57;;;6.70;99.90;;;;;;10362133;28;20027;-72
2024/01/14 04:30:53;;;;;;;0.52;0.40;;;7.70;99.90;;;;;;10364169;28;20048;-72
2024/01/14 04:35:53;;;;;;;2.28;0.57;;;6.70;99.90;;;;;;10354754;28;20030;-72
2024/01/14 04:40:54;;;;;;;2.40;0.50;;;6.70;99.90;;;;;;10355358;28;20025;-73
2024/01/14 04:45:55;;;;;;;1.08;0.40;;;6.90;99.90;;;;;;10373676;28;20024;-72
2024/01/14 04:50:56;;;;;;;0.93;0.32;;;6.70;99.90;;;;;;10369170;28;20516;-72
2024/01/14 04:55:56;;;;;;;1.05;0.30;;;6.70;99.90;;;;;;10370394;28;20044;-72
2024/01/14 05:00:57;;;;;;;0.93;0.40;;;6.70;99.90;;;;;;10371346;28;20038;-73
2024/01/14 05:05:57;;;;;;;0.65;0.57;;;6.70;99.90;;;;;;10367360;28;20022;-72
2024/01/14 05:10:58;;;;;;;1.45;0.40;;;6.70;99.90;;;;;;10371823;28;20022;-72
2024/01/14 05:15:59;;;;;;;1.50;0.47;;;6.70;99.90;;;;;;10356237;28;20026;-72
2024/01/14 05:20:59;;;;;;;1.23;0.40;;;6.70;99.90;;;;;;10372396;28;20026;-72
2024/01/14 05:26:03;;;;;;;1.08;0.30;;;6.70;99.90;;;;;;10369134;28;20084;-72
2024/01/14 05:31:03;;;;;;;2.15;0.40;;;6.70;99.90;;;;;;10366071;28;20033;-72
2024/01/14 05:36:04;;;;;;;0.30;0.20;;;6.70;99.90;;;;;;10364701;28;20515;-73
2024/01/14 05:41:05;;;;;;;1.73;0.60;;;6.70;99.90;;;;;;10369861;28;20040;-72
2024/01/14 05:46:05;;;;;;;0.60;0.40;;;6.70;99.90;;;;;;10369234;28;20018;-73
2024/01/14 05:51:06;;;;;;;2.35;0.40;;;6.70;99.90;;;;;;10371241;28;20034;-72
2024/01/14 05:56:07;;;;;;;2.42;0.47;;;6.70;99.90;;;;;;10370483;28;20441;-72
2024/01/14 06:01:08;;;;;;;0.60;0.30;;;6.70;99.90;;;;;;10376337;28;20700;-72
2024/01/14 06:06:08;;;;;;;1.35;0.40;;;6.70;99.90;;;;;;10369471;28;20069;-72
2024/01/14 06:11:09;;;;;;;1.00;0.30;;;6.70;99.90;;;;;;10370964;28;20034;-72
2024/01/14 06:16:10;;;;;;;2.00;0.57;;;6.70;99.90;;;;;;10370011;28;20022;-72
2024/01/14 06:21:10;;;;;;;0.30;0.20;;;6.70;99.90;;;;;;10372869;28;20025;-72
2024/01/14 06:26:17;;;;;;;0.85;0.30;;;6.70;99.90;;;;;;10349366;28;20080;-72
2024/01/14 06:31:18;;;;;;;0.60;0.30;;;6.70;99.90;;;;;;10365177;28;20045;-72
2024/01/14 06:36:19;;;;;;;0.50;0.30;;;6.70;99.90;;;;;;10359207;28;20052;-72
2024/01/14 06:41:23;;;;;;;0.45;0.45;;;6.70;99.90;;;;;;10366808;28;20366;-72
2024/01/14 06:46:24;;;;;;;1.50;0.20;;;6.70;99.90;;;;;;10371195;28;20403;-73
2024/01/14 06:51:24;;;;;;;0.30;0.22;;;6.70;99.90;;;;;;10368284;28;20030;-73
2024/01/14 06:56:25;;;;;;;0.45;0.30;;;6.70;99.90;;;;;;10366060;28;20484;-72
2024/01/14 07:01:26;;;;;;;1.45;0.50;;;7.80;99.90;;;;;;10365134;28;20029;-72
2024/01/14 07:06:26;;;;;;;1.83;0.20;;;6.70;99.90;;;;;;10359350;28;20053;-72
2024/01/14 07:11:27;;;;;;;1.33;0.40;;;6.70;99.90;;;;;;10367085;28;20038;-72
2024/01/14 07:16:27;;;;;;;1.65;0.30;;;6.70;99.90;;;;;;10358824;28;20082;-72
2024/01/14 07:21:28;;;;;;;0.70;0.43;;;6.70;99.90;;;;;;10356114;28;20037;-72
2024/01/14 07:26:29;;;;;;;0.50;0.30;;;6.60;99.90;;;;;;10363010;28;20014;-72
2024/01/14 07:31:32;;;;;;;1.38;0.25;;;6.60;99.90;;;;;;10340151;28;20029;-71
2024/01/14 07:36:33;;;;;;;1.98;0.32;;;6.60;99.90;;;;;;10344046;28;20057;-72
2024/01/14 07:41:33;;;;;;;1.15;0.20;;;6.60;99.90;;;;;;10344658;28;20091;-72
2024/01/14 07:46:34;;;;;;;0.20;0.20;;;6.70;99.90;;;;;;10373896;28;20026;-72
2024/01/14 07:51:35;;;;;;;2.55;0.63;;;6.70;99.90;;;;;;10359575;28;20326;-72
2024/01/14 07:56:35;;;;;;;1.73;0.20;;;6.60;99.90;;;;;;10368134;28;20030;-71
2024/01/14 08:01:36;;;;;;;0.40;0.30;;;6.60;99.90;;;;;;10345288;28;20168;-72
2024/01/14 08:06:36;;;;;;;1.75;0.30;;;6.70;99.90;;;;;;10366715;28;20033;-72
2024/01/14 08:11:37;;;;;;;1.75;0.30;;;6.60;99.90;;;;;;10346174;28;20524;-72
2024/01/14 08:16:37;;;;;;;0.52;0.22;;;6.60;99.90;;;;;;10370292;28;20033;-72
2024/01/14 08:21:42;;;;;;;0.40;0.30;;;6.60;99.90;;;;;;10373402;28;20040;-72
2024/01/14 08:26:44;;;;;;;0.90;0.30;;;6.60;99.90;;;;;;10348711;28;20068;-72
2024/01/14 08:31:45;;;;;;;3.40;0.47;;;6.60;99.90;;;;;;10349001;28;20076;-72
2024/01/14 08:36:45;;;;;;;1.30;0.15;;;6.60;99.90;;;;;;10370896;28;20060;-72
2024/01/14 08:41:46;;;;;;;2.80;0.40;;;6.60;99.90;;;;;;10370932;28;20044;-72
2024/01/14 08:46:48;;;;;;;0.85;0.50;;;6.60;99.90;;;;;;10372544;28;20092;-72
2024/01/14 08:51:48;;;;;;;1.95;0.40;;;6.60;99.90;;;;;;10376872;28;20026;-72
2024/01/14 08:56:49;;;;;;;1.42;0.40;;;6.60;99.90;;;;;;10380064;28;20038;-71
2024/01/14 09:01:49;;;;;;;1.50;0.45;;;6.70;99.90;;;;;;10374669;28;20400;-72
2024/01/14 09:06:50;;;;;;;1.33;0.73;;;6.60;99.90;;;;;;10369500;28;20046;-71
2024/01/14 09:11:51;;;;;;;0.73;0.47;;;6.60;99.90;;;;;;10362760;28;20100;-70
2024/01/14 09:16:52;;;;;;;1.00;0.47;;;6.70;99.90;;;;;;10368243;28;20168;-73
2024/01/14 09:21:53;;;;;;;1.35;0.63;;;6.70;99.90;;;;;;10353678;28;20038;-73
2024/01/14 09:26:54;;;;;;;2.08;0.85;;;6.70;99.90;;;;;;10369501;28;20391;-72
2024/01/14 09:31:54;;;;;;;1.75;0.90;;;6.60;99.90;;;;;;10372221;28;20034;-71
2024/01/14 09:36:56;;;;;;;3.20;0.90;;;6.70;99.90;;;;;;10372542;28;20502;-74
2024/01/14 09:42:22;;;;;;;2.53;1.00;;;6.70;99.90;;;;;;10353919;28;20031;-72
2024/01/14 09:47:24;;;;;;;3.03;1.15;;;6.70;99.90;;;;;;10374803;28;20071;-71
2024/01/14 09:52:25;;;;;;;3.08;1.20;;;6.70;99.90;;;;;;10362509;28;20030;-72
2024/01/14 09:57:31;;;;;;;2.45;1.23;;;6.70;99.90;;;;;;10357193;28;20107;-73
2024/01/14 10:02:35;;;;;;;4.93;1.42;;;6.70;99.90;;;;;;10359825;28;20057;-72
2024/01/14 10:07:36;;;;;;;4.60;1.70;;;6.70;99.90;;;;;;10371445;28;20506;-72
2024/01/14 10:12:37;;;;;;;4.47;1.70;;;6.90;99.90;;;;;;10364950;28;20030;-72
2024/01/14 10:17:37;;;;;;;5.18;1.92;;;7.10;99.90;;;;;;10358357;28;20054;-72
2024/01/14 10:22:42;;;;;;;2.95;1.60;;;7.00;99.90;;;;;;10370732;28;20452;-72
2024/01/14 10:27:42;;;;;;;4.93;2.10;;;7.00;99.90;;;;;;10362445;28;20050;-71
2024/01/14 10:32:43;;;;;;;4.05;2.08;;;6.90;99.90;;;;;;10359996;28;20401;-72
2024/01/14 10:37:45;;;;;;;5.10;1.90;;;6.90;99.90;;;;;;10365430;28;20026;-73
2024/01/14 10:42:46;;;;;;;5.22;1.90;;;6.90;99.90;;;;;;10362543;28;20042;-72
2024/01/14 10:47:51;;;;;;;4.40;2.05;;;7.80;99.90;;;;;;10365189;28;20022;-71
2024/01/14 10:52:55;;;;;;;4.90;2.47;;;6.90;99.90;;;;;;10364417;28;20537;-71
2024/01/14 10:57:58;;;;;;;6.45;2.55;;;6.80;99.90;;;;;;10373755;28;20022;-72
2024/01/14 11:03:06;;;;;;;5.38;2.50;;;6.80;99.90;;;;;;10351013;28;20030;-70
2024/01/14 11:08:14;;;;;;;5.28;2.40;;;6.80;99.90;;;;;;10368757;28;20029;-72
2024/01/14 11:13:25;;;;;;;5.88;2.70;;;7.10;99.90;;;;;;10373306;28;20381;-72
2024/01/14 11:18:39;;;;;;;5.22;2.30;;;6.90;99.90;;;;;;10370938;28;20465;-73
2024/01/14 11:23:40;;;;;;;7.85;2.88;;;6.90;99.90;;;;;;10355346;28;20509;-75
2024/01/14 11:28:44;;;;;;;5.47;2.60;;;6.90;99.90;;;;;;10369799;28;20044;-74
2024/01/14 11:33:49;;;;;;;6.40;2.78;;;6.90;99.90;;;;;;10362014;28;20441;-74
2024/01/14 11:38:52;;;;;;;6.07;2.88;;;6.90;99.90;;;;;;10375289;28;20048;-74
2024/01/14 11:43:55;;;;;;;7.30;3.00;;;6.90;99.90;;;;;;10362706;28;20394;-73
2024/01/14 11:48:56;;;;;;;6.97;3.28;;;6.90;99.90;;;;;;10356927;28;20303;-73
2024/01/14 11:53:58;;;;;;;8.70;3.70;;;6.90;99.90;;;;;;10372816;28;20053;-73
2024/01/14 11:58:59;;;;;;;8.35;3.53;;;6.90;99.90;;;;;;10364328;28;20077;-73
2024/01/14 12:04:08;;;;;;;9.60;3.70;;;6.90;99.90;;;;;;10371541;28;20037;-73
2024/01/14 12:09:10;;;;;;;12.32;3.85;;;6.90;99.90;;;;;;10370249;28;20021;-74
2024/01/14 12:14:12;;;;;;;6.43;3.40;;;6.90;99.90;;;;;;10345924;28;20476;-74
2024/01/14 12:19:18;;;;;;;7.15;3.53;;;6.90;99.90;;;;;;10374873;28;20084;-74
2024/01/14 12:24:18;;;;;;;11.30;3.90;;;6.90;99.90;;;;;;10346629;28;20032;-74
2024/01/14 12:29:19;;;;;;;7.10;3.22;;;6.90;99.90;;;;;;10359836;28;20420;-72
2024/01/14 12:34:20;;;;;;;8.55;3.65;;;6.90;99.90;;;;;;10370278;28;20040;-73
2024/01/14 12:39:20;;;;;;;8.32;3.80;;;6.90;99.90;;;;;;10349433;28;20021;-73
2024/01/14 12:44:22;;;;;;;8.82;3.75;;;6.90;99.90;;;;;;10358930;28;20030;-74
2024/01/14 12:49:34;;;;;;;8.98;3.80;;;6.90;99.90;;;;;;10364981;28;20049;-75
2024/01/14 12:54:34;;;;;;;8.55;3.40;;;6.90;99.90;;;;;;10371506;28;20501;-75
2024/01/14 12:59:35;;;;;;;6.88;2.85;;;6.90;99.90;;;;;;10368035;28;20030;-74
2024/01/14 13:04:36;;;;;;;7.00;3.38;;;7.00;99.90;;;;;;10378389;28;20098;-74
2024/01/14 13:09:37;;;;;;;7.00;3.28;;;7.00;99.90;;;;;;10390432;28;20018;-75
2024/01/14 13:14:37;;;;;;;8.43;3.90;;;7.00;99.90;;;;;;10375328;28;20064;-74
2024/01/14 13:19:38;;;;;;;6.57;3.20;;;7.00;99.90;;;;;;10378172;28;20072;-72
2024/01/14 13:24:39;;;;;;;7.40;3.17;;;7.00;99.90;;;;;;10361152;28;20489;-72
2024/01/14 13:29:39;;;;;;;6.63;2.75;;;7.00;99.90;;;;;;10358964;28;20022;-72
2024/01/14 13:34:40;;;;;;;7.15;2.92;;;7.00;99.90;;;;;;10372005;28;20529;-72
2024/01/14 13:39:41;;;;;;;9.75;3.17;;;7.10;99.90;;;;;;10367106;28;20512;-73
2024/01/14 13:44:41;;;;;;;5.25;2.08;;;7.00;99.90;;;;;;10371904;28;20022;-72
2024/01/14 13:49:42;;;;;;;6.22;2.50;;;7.00;99.90;;;;;;10390072;28;20044;-71
2024/01/14 13:54:44;;;;;;;6.88;2.60;;;7.00;99.90;;;;;;10376821;28;20034;-72
2024/01/14 13:59:44;;;;;;;5.90;2.38;;;7.00;99.90;;;;;;10380767;28;20030;-72
2024/01/14 14:04:45;;;;;;;5.32;2.28;;;7.00;99.90;;;;;;10373978;28;20675;-73
2024/01/14 14:09:45;;;;;;;4.03;2.03;;;7.00;99.90;;;;;;10388132;28;20446;-72
2024/01/14 14:14:46;;;;;;;3.35;1.92;;;7.00;99.90;;;;;;10381597;28;20017;-71
2024/01/14 14:19:46;;;;;;;5.65;2.20;;;7.00;99.90;;;;;;10359745;28;20088;-72
2024/01/14 14:24:47;;;;;;;4.25;1.90;;;7.00;99.90;;;;;;10372745;28;20030;-73
2024/01/14 14:29:48;;;;;;;4.00;1.58;;;7.00;99.90;;;;;;10375563;28;20044;-72
2024/01/14 14:34:48;;;;;;;5.28;1.85;;;7.40;99.90;;;;;;10377144;28;20110;-71
2024/01/14 14:39:49;;;;;;;3.35;1.60;;;7.00;99.90;;;;;;10361624;28;20161;-72
2024/01/14 14:44:50;;;;;;;4.88;1.80;;;7.20;99.90;;;;;;10367513;28;20037;-72
2024/01/14 14:49:50;;;;;;;4.82;1.60;;;7.00;99.90;;;;;;10370923;28;20021;-72
2024/01/14 14:54:51;;;;;;;2.53;1.42;;;7.00;99.90;;;;;;10353484;28;20028;-72
2024/01/14 14:59:51;;;;;;;3.05;1.48;;;7.00;99.90;;;;;;10356532;28;20111;-72
2024/01/14 15:04:52;;;;;;;2.42;1.30;;;7.00;99.90;;;;;;10352843;28;20029;-72
2024/01/14 15:09:53;;;;;;;2.92;1.30;;;8.20;99.90;;;;;;10369664;28;20025;-71
2024/01/14 15:14:54;;;;;;;3.67;1.10;;;7.00;99.90;;;;;;10370656;28;20021;-71
2024/01/14 15:19:55;;;;;;;5.35;1.38;;;7.00;99.90;;;;;;10362402;28;20121;-71
2024/01/14 15:24:55;;;;;;;2.05;1.20;;;7.00;99.90;;;;;;10370069;28;20026;-71
2024/01/14 15:29:56;;;;;;;2.85;1.25;;;7.00;99.90;;;;;;10371841;28;20041;-72
2024/01/14 15:34:57;;;;;;;2.10;0.98;;;7.00;99.90;;;;;;10373104;28;20039;-73
2024/01/14 15:39:57;;;;;;;2.97;1.30;;;8.00;99.90;;;;;;10381372;28;20025;-73
2024/01/14 15:44:59;;;;;;;4.20;1.20;;;7.00;99.90;;;;;;10344784;28;20813;-73
2024/01/14 15:50:00;;;;;;;4.25;1.15;;;7.00;99.90;;;;;;10351734;28;20532;-73
2024/01/14 15:55:01;;;;;;;2.95;1.05;;;7.00;99.90;;;;;;10365814;28;20441;-72
2024/01/14 16:00:02;;;;;;;3.42;1.30;;;7.00;99.90;;;;;;10371933;28;20095;-72
2024/01/14 16:05:03;;;;;;;3.15;0.93;;;7.00;99.90;;;;;;10371683;28;20494;-72
2024/01/14 16:10:04;;;;;;;3.60;1.45;;;7.00;99.90;;;;;;10374296;28;20028;-73
2024/01/14 16:15:07;;;;;;;2.60;1.10;;;7.00;99.90;;;;;;10352494;28;20038;-73
2024/01/14 16:20:08;;;;;;;3.17;1.17;;;7.00;99.90;;;;;;10375884;28;20025;-72
2024/01/14 16:25:09;;;;;;;4.03;1.17;;;7.00;99.90;;;;;;10365045;28;20034;-74
2024/01/14 16:30:10;;;;;;;5.80;1.40;;;7.00;99.90;;;;;;10368946;28;20086;-76
2024/01/14 16:35:12;;;;;;;3.05;1.48;;;7.70;99.90;;;;;;10380712;28;20424;-78
2024/01/14 16:40:13;;;;;;;5.30;1.40;;;7.70;99.90;;;;;;10359784;28;20025;-74
2024/01/14 16:45:14;;;;;;;3.40;1.20;;;7.60;99.90;;;;;;10368242;28;20021;-77
2024/01/14 16:50:14;;;;;;;4.60;0.95;;;7.50;99.90;;;;;;10373903;28;20080;-79
2024/01/14 16:55:20;;;;;;;4.45;1.50;;;7.40;99.90;;;;;;10380053;28;20034;-74
2024/01/14 17:00:22;;;;;;;7.40;1.08;;;7.50;99.90;;;;;;10383389;28;20038;-73
2024/01/14 17:05:23;;;;;;;5.78;1.30;;;7.40;99.90;;;;;;10382864;28;20034;-71
2024/01/14 17:10:23;;;;;;;1.73;0.93;;;7.30;99.90;;;;;;10369898;28;20044;-72
2024/01/14 17:15:25;;;;;;;5.43;1.33;;;7.30;99.90;;;;;;10383740;28;20113;-71
2024/01/14 17:20:26;;;;;;;6.57;1.05;;;7.20;99.90;;;;;;10376843;28;20045;-72
2024/01/14 17:25:27;;;;;;;3.13;1.00;;;7.20;99.90;;;;;;10383587;28;20051;-72
2024/01/14 17:30:28;;;;;;;4.07;1.10;;;7.10;99.90;;;;;;10369109;28;20049;-72
2024/01/14 17:35:28;;;;;;;3.78;1.20;;;7.10;99.90;;;;;;10373935;28;20033;-72
2024/01/14 17:40:29;;;;;;;2.58;0.77;;;7.00;99.90;;;;;;10373392;28;20037;-72
2024/01/14 17:45:30;;;;;;;3.30;1.05;;;7.00;99.90;;;;;;10380523;28;20037;-72
2024/01/14 17:50:30;;;;;;;3.40;0.90;;;7.00;99.90;;;;;;10358317;28;20093;-71
2024/01/14 17:55:31;;;;;;;2.55;0.95;;;6.90;99.90;;;;;;10367891;28;20038;-72
2024/01/14 18:00:31;;;;;;;5.88;0.90;;;6.90;99.90;;;;;;10377622;28;20579;-74
2024/01/14 18:05:32;;;;;;;6.03;0.98;;;6.90;99.90;;;;;;10357463;28;20026;-72
2024/01/14 18:10:32;;;;;;;6.97;1.10;;;7.00;99.90;;;;;;10353792;28;20029;-72
2024/01/14 18:15:33;;;;;;;1.38;0.60;;;7.00;99.90;;;;;;10360517;28;20034;-71
2024/01/14 18:20:34;;;;;;;1.98;0.88;;;7.00;99.90;;;;;;10369174;28;20049;-76
2024/01/14 18:25:35;;;;;;;4.13;0.80;;;7.10;99.90;;;;;;10368491;28;20066;-71
2024/01/14 18:30:36;;;;;;;1.55;0.77;;;7.20;99.90;;;;;;10352922;28;20034;-71
2024/01/14 18:35:38;;;;;;;4.03;1.10;;;7.10;99.90;;;;;;10357907;28;20026;-72
2024/01/14 18:40:38;;;;;;;5.18;1.20;;;7.10;99.90;;;;;;10364082;28;20049;-72
2024/01/14 18:45:39;;;;;;;3.92;1.00;;;7.00;99.90;;;;;;10370114;28;20026;-72
2024/01/14 18:50:41;;;;;;;2.28;0.80;;;6.90;99.90;;;;;;10361883;28;20037;-72
2024/01/14 18:55:41;;;;;;;1.65;0.68;;;6.90;99.90;;;;;;10361711;28;20026;-71
2024/01/14 19:00:42;;;;;;;2.53;0.80;;;6.90;99.90;;;;;;10358830;28;20040;-71
2024/01/14 19:05:43;;;;;;;4.10;0.90;;;6.80;99.90;;;;;;10362151;28;20018;-72
2024/01/14 19:10:43;;;;;;;1.92;0.90;;;6.90;99.90;;;;;;10363326;28;20038;-71
2024/01/14 19:15:44;;;;;;;2.22;0.73;;;6.90;99.90;;;;;;10359599;28;20045;-72
2024/01/14 19:20:45;;;;;;;2.67;1.13;;;6.90;99.90;;;;;;10366250;28;20501;-71
2024/01/14 19:25:45;;;;;;;1.25;0.88;;;6.80;99.90;;;;;;10363675;28;20018;-71
2024/01/14 19:33:31;;;;;;;2.85;0.88;;;6.80;99.90;;;;;;10656093;27;20454;-70
2024/01/14 19:38:32;;;;;;;1.92;0.60;;;6.80;99.90;;;;;;10633330;27;20400;-71
2024/01/14 19:43:32;;;;;;;1.45;0.90;;;6.70;99.90;;;;;;10653704;27;20115;-71
2024/01/14 19:48:33;;;;;;;3.75;1.27;;;6.70;99.90;;;;;;10653794;27;20015;-70
2024/01/14 19:53:33;;;;;;;3.05;0.93;;;6.70;99.90;;;;;;10658309;27;20110;-71
2024/01/14 19:58:34;;;;;;;1.15;0.52;;;6.70;99.90;;;;;;10655587;27;20018;-71
2024/01/14 20:03:35;;;;;;;1.95;0.88;;;6.70;99.90;;;;;;10652581;27;20019;-71
2024/01/14 20:08:35;;;;;;;3.63;0.90;;;6.70;99.90;;;;;;10659848;27;20027;-71
2024/01/14 20:13:36;;;;;;;0.68;0.50;;;6.70;99.90;;;;;;10658162;27;20015;-71
2024/01/14 20:18:39;;;;;;;1.90;0.70;;;6.70;99.90;;;;;;10654223;27;20019;-71
2024/01/14 20:23:43;;;;;;;2.35;0.70;;;6.70;99.90;;;;;;10660002;27;20410;-70
2024/01/14 20:28:43;;;;;;;2.38;1.08;;;6.60;99.90;;;;;;10647843;27;20018;-71
2024/01/14 20:33:44;;;;;;;3.97;1.70;;;6.70;99.90;;;;;;10658604;27;20019;-70
2024/01/14 20:38:44;;;;;;;1.92;0.73;;;6.60;99.90;;;;;;10663656;27;20050;-71
2024/01/14 20:43:46;;;;;;;0.60;0.50;;;6.60;99.90;;;;;;10631833;27;20080;-70
2024/01/14 20:48:47;;;;;;;1.08;0.57;;;6.60;99.90;;;;;;10627705;27;20023;-71
2024/01/14 20:53:47;;;;;;;0.80;0.55;;;6.60;99.90;;;;;;10627488;27;20041;-71
2024/01/14 20:58:48;;;;;;;1.23;0.73;;;6.60;99.90;;;;;;10628912;27;20451;-70
2024/01/14 21:03:48;;;;;;;1.77;0.60;;;6.60;99.90;;;;;;10615364;27;20549;-70
2024/01/14 21:08:49;;;;;;;3.42;0.70;;;6.60;99.90;;;;;;10615562;27;20024;-71
2024/01/14 21:13:49;;;;;;;1.58;0.60;;;6.60;99.90;;;;;;10616622;27;20023;-71
2024/01/14 21:18:50;;;;;;;1.23;0.70;;;6.60;99.90;;;;;;10617495;27;20033;-71
2024/01/14 21:23:51;;;;;;;2.55;0.68;;;6.60;99.90;;;;;;10618282;27;20033;-71
2024/01/14 21:28:54;;;;;;;1.70;0.70;;;6.50;99.90;;;;;;10616675;27;20422;-71
2024/01/14 21:33:55;;;;;;;0.93;0.50;;;6.50;99.90;;;;;;10615763;27;20039;-71
2024/01/14 21:38:55;;;;;;;1.33;0.65;;;6.50;99.90;;;;;;10609387;27;20103;-70
2024/01/14 21:43:56;;;;;;;1.30;0.75;;;6.60;99.90;;;;;;10610384;27;20110;-71
2024/01/14 21:48:56;;;;;;;1.50;0.70;;;6.60;99.90;;;;;;10616583;27;20025;-70
2024/01/14 21:53:57;;;;;;;2.75;0.70;;;6.50;99.90;;;;;;10621589;27;20035;-71
2024/01/14 21:58:58;;;;;;;2.35;0.50;;;6.50;99.90;;;;;;10614649;27;20023;-70
2024/01/14 22:03:58;;;;;;;2.92;0.55;;;6.50;99.90;;;;;;10620314;27;20027;-71
2024/01/14 22:08:59;;;;;;;2.33;0.77;;;6.50;99.90;;;;;;10613651;27;20548;-70
2024/01/14 22:14:01;;;;;;;1.70;0.60;;;6.50;99.90;;;;;;10615525;27;20068;-71
2024/01/14 22:19:03;;;;;;;1.45;0.75;;;6.50;99.90;;;;;;10616357;27;20126;-71
2024/01/14 22:24:04;;;;;;;1.25;0.43;;;6.50;99.90;;;;;;10620028;27;20033;-70
2024/01/14 22:29:25;;;;;;;4.45;0.70;;;6.50;99.90;;;;;;10617552;27;20636;-71
2024/01/14 22:34:27;;;;;;;2.42;0.63;;;6.50;99.90;;;;;;10608847;27;20111;-71
2024/01/14 22:39:29;;;;;;;0.60;0.45;;;6.40;99.90;;;;;;10617422;27;20054;-71
2024/01/14 22:44:29;;;;;;;1.85;0.55;;;5.90;99.90;;;;;;10619484;27;20442;-71
2024/01/14 22:49:30;;;;;;;1.98;0.68;;;6.40;99.90;;;;;;10617275;27;20118;-70
2024/01/14 22:54:35;;;;;;;1.30;0.50;;;6.40;99.90;;;;;;10621600;27;20076;-71
2024/01/14 22:59:35;;;;;;;2.15;0.77;;;6.40;99.90;;;;;;10619637;27;20018;-70
2024/01/14 23:04:36;;;;;;;1.15;0.60;;;6.40;99.90;;;;;;10613607;27;20031;-71
2024/01/14 23:09:37;;;;;;;0.98;0.50;;;6.40;99.90;;;;;;10619092;27;20027;-70
2024/01/14 23:14:37;;;;;;;1.48;0.50;;;6.40;99.90;;;;;;10626036;27;20775;-71
2024/01/14 23:19:38;;;;;;;1.20;0.60;;;6.40;99.90;;;;;;10621599;27;20045;-70
2024/01/14 23:24:38;;;;;;;2.03;0.68;;;6.40;99.90;;;;;;10619305;27;20027;-70
2024/01/14 23:29:39;;;;;;;1.77;0.43;;;6.40;99.90;;;;;;10619819;27;20023;-70
2024/01/14 23:34:39;;;;;;;2.88;0.40;;;6.30;99.90;;;;;;10617671;27;20023;-70
2024/01/14 23:39:40;;;;;;;1.45;0.50;;;6.30;99.90;;;;;;10617374;27;20019;-70
2024/01/14 23:44:40;;;;;;;0.20;0.20;;;6.30;99.90;;;;;;10613996;27;20440;-70
2024/01/14 23:49:41;;;;;;;1.05;0.50;;;6.40;99.90;;;;;;10624501;27;20019;-70
2024/01/14 23:54:42;;;;;;;1.30;0.50;;;6.30;99.90;;;;;;10620892;27;20018;-70
2024/01/14 23:59:43;;;;;;;1.00;0.52;;;6.30;99.90;;;;;;10620747;27;20548;-70
